Time;durP1;ratioP1;P1;durP2;ratioP2;P2;SDS_P1;SDS_P2;PMS_P1;PMS_P2;Temp;Humidity;BMP_temperature;BMP_pressure;BME280_temperature;BME280_humidity;BME280_pressure;Samples;Min_cycle;Max_cycle;Signal;HPM_P1;HPM_P2
2022/04/21 00:00:51;;;;;;;;;;;;;;;18.12;42.34;101633.81;4976668;28;19919;-74
2022/04/21 00:03:17;;;;;;;;;;;;;;;18.13;42.49;101640.75;4976651;28;19915;-73
2022/04/21 00:05:42;;;;;;;;;;;;;;;18.13;42.57;101632.06;4976798;28;20389;-74
2022/04/21 00:08:08;;;;;;;;;;;;;;;18.13;42.48;101629.47;4977591;28;19965;-74
2022/04/21 00:10:33;;;;;;;;;;;;;;;18.15;42.69;101623.38;4960143;28;19914;-74
2022/04/21 00:12:59;;;;;;;;;;;;;;;18.16;42.35;101621.63;4978713;28;19921;-74
2022/04/21 00:15:24;;;;;;;;;;;;;;;18.15;42.47;101617.31;4976898;28;19914;-74
2022/04/21 00:17:50;;;;;;;;;;;;;;;18.17;42.62;101616.44;4958783;28;20439;-73
2022/04/21 00:20:15;;;;;;;;;;;;;;;18.14;42.45;101616.44;4976410;28;19923;-74
2022/04/21 00:25:27;;;;;;;;;;;;;;;18.07;42.48;101612.06;4977551;28;20292;-84
2022/04/21 00:27:54;;;;;;;;;;;;;;;18.07;42.70;101612.06;4977415;28;19957;-84
2022/04/21 00:30:20;;;;;;;;;;;;;;;18.04;42.60;101607.75;4959777;28;19921;-84
2022/04/21 00:32:46;;;;;;;;;;;;;;;18.04;42.60;101601.66;4976913;28;19918;-84
2022/04/21 00:35:12;;;;;;;;;;;;;;;17.99;42.67;101611.22;4976930;28;19949;-83
2022/04/21 00:37:53;;;;;;;;;;;;;;;17.99;42.96;101609.47;4959255;28;19921;-83
2022/04/21 00:40:20;;;;;;;;;;;;;;;18.06;42.85;101618.16;4959175;28;19922;-84
2022/04/21 00:42:45;;;;;;;;;;;;;;;18.07;42.89;101612.97;4959180;28;20395;-74
2022/04/21 00:45:12;;;;;;;;;;;;;;;18.04;42.58;101619.91;4975673;28;19945;-74
2022/04/21 00:47:42;;;;;;;;;;;;;;;18.02;42.59;101619.03;4975911;28;19914;-74
2022/04/21 00:50:12;;;;;;;;;;;;;;;17.98;42.63;101620.75;4977071;28;20009;-73
2022/04/21 00:52:38;;;;;;;;;;;;;;;17.97;42.77;101618.16;4976112;28;19914;-74
2022/04/21 00:55:05;;;;;;;;;;;;;;;17.95;42.92;101618.16;4976805;28;20258;-74
2022/04/21 00:57:30;;;;;;;;;;;;;;;17.95;42.89;101610.34;4958795;28;20321;-74
2022/04/21 00:59:55;;;;;;;;;;;;;;;17.95;42.84;101615.56;4975610;28;20009;-73
2022/04/21 01:05:05;;;;;;;;;;;;;;;17.97;42.91;101608.59;4975852;28;19928;-74
2022/04/21 01:07:32;;;;;;;;;;;;;;;17.97;42.76;101613.81;4975711;28;20004;-74
2022/04/21 01:09:58;;;;;;;;;;;;;;;17.95;42.99;101615.56;4975430;28;20416;-74
2022/04/21 01:12:23;;;;;;;;;;;;;;;18.02;42.93;101613.81;4975405;28;19962;-74
2022/04/21 01:14:49;;;;;;;;;;;;;;;18.04;43.03;101612.09;4975247;28;20404;-74
2022/04/21 01:17:14;;;;;;;;;;;;;;;18.06;42.93;101616.44;4975542;28;19954;-74
2022/04/21 01:19:39;;;;;;;;;;;;;;;18.08;43.13;101613.84;4975950;28;19948;-74
2022/04/21 01:22:05;;;;;;;;;;;;;;;18.07;42.94;101612.97;4975919;28;20002;-74
2022/04/21 01:24:30;;;;;;;;;;;;;;;18.09;43.15;101613.84;4975674;28;20380;-75
2022/04/21 01:26:57;;;;;;;;;;;;;;;18.08;43.00;101606.03;4958095;28;20373;-74
2022/04/21 01:29:22;;;;;;;;;;;;;;;18.09;43.22;101607.75;4975284;28;20280;-77
2022/04/21 01:31:47;;;;;;;;;;;;;;;18.08;43.15;101606.03;4958627;28;19921;-74
2022/04/21 01:34:13;;;;;;;;;;;;;;;18.10;43.29;101609.50;4975237;28;19925;-74
2022/04/21 01:41:08;;;;;;;;;;;;;;;18.10;43.14;101606.88;4975261;28;19914;-74
2022/04/21 01:42:12;;;;;;;;;;;;;;;18.07;43.07;101602.56;4975111;28;20005;-74
2022/04/21 01:44:37;;;;;;;;;;;;;;;18.08;43.27;101599.06;4975035;28;20273;-74
2022/04/21 01:47:03;;;;;;;;;;;;;;;18.06;43.10;101595.59;4975177;28;19937;-74
2022/04/21 01:49:28;;;;;;;;;;;;;;;18.12;43.08;101599.06;4975448;28;19918;-74
2022/04/21 01:51:53;;;;;;;;;;;;;;;18.08;43.14;101600.81;4975025;28;19918;-74
2022/04/21 01:54:18;;;;;;;;;;;;;;;18.08;43.22;101595.59;4957824;28;19914;-74
2022/04/21 01:56:43;;;;;;;;;;;;;;;18.05;43.23;101596.47;4974862;28;19918;-74
2022/04/21 01:59:09;;;;;;;;;;;;;;;18.02;43.17;101592.97;4974933;28;19929;-74
2022/04/21 02:01:34;;;;;;;;;;;;;;;18.03;43.22;101594.72;4974996;28;20005;-74
2022/04/21 02:03:59;;;;;;;;;;;;;;;17.98;43.19;101592.09;4976244;28;20277;-74
2022/04/21 02:06:25;;;;;;;;;;;;;;;18.00;43.27;101587.78;4978509;28;19922;-74
2022/04/21 02:08:50;;;;;;;;;;;;;;;18.00;43.11;101592.13;4978628;28;20006;-74
2022/04/21 02:11:16;;;;;;;;;;;;;;;17.95;42.96;101586.91;4978603;28;19918;-76
2022/04/21 02:13:41;;;;;;;;;;;;;;;17.92;43.33;101594.72;4978551;28;19922;-74
2022/04/21 02:16:06;;;;;;;;;;;;;;;17.93;43.21;101580.81;4978615;28;19925;-74
2022/04/21 02:18:32;;;;;;;;;;;;;;;17.92;43.17;101573.00;4978336;28;19922;-74
2022/04/21 02:20:57;;;;;;;;;;;;;;;17.92;42.96;101579.09;4978649;28;19914;-74
2022/04/21 02:23:22;;;;;;;;;;;;;;;17.92;43.09;101580.81;4978442;28;19914;-74
2022/04/21 02:25:48;;;;;;;;;;;;;;;17.93;43.17;101582.56;4978129;28;19938;-74
2022/04/21 02:28:13;;;;;;;;;;;;;;;17.91;43.09;101577.34;4978746;28;19914;-74
2022/04/21 02:30:41;;;;;;;;;;;;;;;17.94;43.12;101571.28;4978940;28;19921;-74
2022/04/21 02:33:07;;;;;;;;;;;;;;;17.96;43.05;101566.94;4978638;28;19921;-75
2022/04/21 02:35:32;;;;;;;;;;;;;;;17.89;43.19;101572.13;4961397;28;19918;-75
2022/04/21 02:37:58;;;;;;;;;;;;;;;17.85;43.09;101566.94;4978180;28;19914;-75
2022/04/21 02:40:23;;;;;;;;;;;;;;;17.85;43.00;101569.53;4978358;28;20384;-75
2022/04/21 02:42:48;;;;;;;;;;;;;;;17.84;43.45;101565.19;4978433;28;19921;-75
2022/04/21 02:45:14;;;;;;;;;;;;;;;17.80;43.18;101563.44;4978530;28;19914;-75
2022/04/21 02:47:40;;;;;;;;;;;;;;;17.78;43.16;101562.56;4978348;28;19923;-74
2022/04/21 02:50:06;;;;;;;;;;;;;;;17.76;43.41;101562.53;4961234;28;19925;-75
2022/04/21 02:52:34;;;;;;;;;;;;;;;17.79;43.35;101566.88;4962883;28;19922;-75
2022/04/21 02:57:43;;;;;;;;;;;;;;;17.83;43.30;101563.44;4979994;28;20009;-74
2022/04/21 03:00:09;;;;;;;;;;;;;;;17.85;43.44;101561.72;4961607;28;20001;-75
2022/04/21 03:02:34;;;;;;;;;;;;;;;17.84;43.40;101565.19;4961153;28;19921;-74
2022/04/21 03:04:59;;;;;;;;;;;;;;;17.83;43.24;101569.56;4978401;28;19914;-75
2022/04/21 03:07:25;;;;;;;;;;;;;;;17.80;43.26;101566.88;4978341;28;19937;-74
2022/04/21 03:09:53;;;;;;;;;;;;;;;17.82;43.53;101566.94;4978067;28;20030;-75
2022/04/21 03:12:18;;;;;;;;;;;;;;;17.82;43.35;101575.59;4977761;28;20017;-75
2022/04/21 03:14:43;;;;;;;;;;;;;;;17.83;43.46;101572.16;4977405;28;20004;-75
2022/04/21 03:17:09;;;;;;;;;;;;;;;17.84;43.45;101568.66;4978174;28;19922;-75
2022/04/21 03:19:35;;;;;;;;;;;;;;;17.82;43.18;101561.72;4978727;28;20025;-75
2022/04/21 03:24:45;;;;;;;;;;;;;;;17.83;43.35;101558.25;4978251;28;20348;-74
2022/04/21 03:27:10;;;;;;;;;;;;;;;17.78;43.11;101570.38;4977662;28;19914;-74
2022/04/21 03:29:37;;;;;;;;;;;;;;;17.72;43.30;101576.41;4978074;28;19918;-76
2022/04/21 03:32:09;;;;;;;;;;;;;;;17.78;43.28;101571.22;4979576;28;19925;-74
2022/04/21 03:34:35;;;;;;;;;;;;;;;17.81;43.49;101576.47;4980875;28;20274;-75
2022/04/21 03:37:01;;;;;;;;;;;;;;;17.80;43.29;101574.69;4981655;28;19914;-75
2022/04/21 03:39:26;;;;;;;;;;;;;;;17.83;43.27;101579.06;4980107;28;19922;-74
2022/04/21 03:41:53;;;;;;;;;;;;;;;17.81;43.22;101576.47;4979943;28;19918;-74
2022/04/21 03:44:21;;;;;;;;;;;;;;;17.82;43.35;101580.81;4978564;28;20394;-74
2022/04/21 03:46:47;;;;;;;;;;;;;;;17.82;43.12;101573.00;4978368;28;19914;-74
2022/04/21 03:49:12;;;;;;;;;;;;;;;17.79;43.39;101578.19;4979110;28;19981;-79
2022/04/21 03:51:37;;;;;;;;;;;;;;;17.80;43.21;101577.31;4981196;28;19911;-74
2022/04/21 03:54:03;;;;;;;;;;;;;;;17.80;43.37;101572.09;4980493;28;19974;-75
2022/04/21 03:56:28;;;;;;;;;;;;;;;17.80;43.33;101576.44;4978576;28;20017;-75
2022/04/21 03:58:53;;;;;;;;;;;;;;;17.79;43.18;101572.09;4977024;28;19978;-75
2022/04/21 04:01:19;;;;;;;;;;;;;;;17.78;43.17;101581.63;4977321;28;19937;-74
2022/04/21 04:03:45;;;;;;;;;;;;;;;17.79;43.15;101575.59;4977269;28;19914;-75
2022/04/21 04:11:38;;;;;;;;;;;;;;;17.78;43.38;101575.56;4976823;28;20029;-74
2022/04/21 04:14:05;;;;;;;;;;;;;;;17.78;43.32;101573.81;4976682;28;20461;-74
2022/04/21 04:16:31;;;;;;;;;;;;;;;17.78;43.36;101578.16;4960939;28;19914;-74
2022/04/21 04:18:56;;;;;;;;;;;;;;;17.77;43.32;101571.22;4976505;28;19925;-74
2022/04/21 04:21:21;;;;;;;;;;;;;;;17.75;43.32;101576.44;4959207;28;20347;-74
2022/04/21 04:23:46;;;;;;;;;;;;;;;17.74;43.31;101579.91;4976519;28;20360;-76
2022/04/21 04:26:11;;;;;;;;;;;;;;;17.78;43.33;101578.16;4958716;28;20357;-74
2022/04/21 04:28:37;;;;;;;;;;;;;;;17.76;43.35;101577.31;4976540;28;19919;-75
2022/04/21 04:31:02;;;;;;;;;;;;;;;17.76;43.30;101572.97;4959231;28;19910;-74
2022/04/21 04:33:27;;;;;;;;;;;;;;;17.76;43.25;101580.75;4975885;28;19924;-74
2022/04/21 04:35:52;;;;;;;;;;;;;;;17.77;43.25;101581.63;4958721;28;19915;-74
2022/04/21 04:38:18;;;;;;;;;;;;;;;17.78;43.17;101578.16;4976092;28;20328;-74
2022/04/21 04:40:43;;;;;;;;;;;;;;;17.76;43.18;101580.75;4976366;28;19953;-74
2022/04/21 04:43:14;;;;;;;;;;;;;;;17.78;43.23;101581.63;4960198;28;19929;-74
2022/04/21 04:48:26;;;;;;;;;;;;;;;17.77;43.03;101576.41;4976633;28;19921;-74
2022/04/21 04:50:52;;;;;;;;;;;;;;;17.77;43.21;101579.91;4975839;28;19918;-74
2022/04/21 04:53:17;;;;;;;;;;;;;;;17.82;43.15;101582.56;4975775;28;19921;-74
2022/04/21 04:55:42;;;;;;;;;;;;;;;17.83;43.15;101586.88;4975727;28;20034;-74
2022/04/21 04:58:08;;;;;;;;;;;;;;;17.84;43.13;101581.69;4975557;28;20006;-73
2022/04/21 05:00:33;;;;;;;;;;;;;;;17.81;43.01;101584.25;4975826;28;19914;-74
2022/04/21 05:02:58;;;;;;;;;;;;;;;17.83;43.00;101585.16;4958340;28;19969;-74
2022/04/21 05:05:23;;;;;;;;;;;;;;;17.83;43.06;101589.47;4975509;28;19914;-74
2022/04/21 05:07:49;;;;;;;;;;;;;;;17.82;43.15;101583.41;4975673;28;20005;-73
2022/04/21 05:10:23;;;;;;;;;;;;;;;17.86;43.06;101577.34;4976117;28;19918;-74
2022/04/21 05:12:48;;;;;;;;;;;;;;;17.85;43.03;101585.16;4959020;28;19962;-74
2022/04/21 05:15:14;;;;;;;;;;;;;;;18.00;43.24;101584.31;4975511;28;19914;-75
2022/04/21 05:17:39;;;;;;;;;;;;;;;18.16;44.02;101596.47;4974989;28;19926;-76
2022/04/21 05:20:05;;;;;;;;;;;;;;;18.20;43.47;101602.53;4975382;28;20388;-77
2022/04/21 05:22:37;;;;;;;;;;;;;;;18.13;43.18;101593.84;4975369;28;19914;-77
2022/04/21 05:25:04;;;;;;;;;;;;;;;18.13;43.38;101593.00;4958334;28;19953;-77
2022/04/21 05:27:30;;;;;;;;;;;;;;;18.09;43.45;101594.72;4975930;28;20024;-77
2022/04/21 05:32:40;;;;;;;;;;;;;;;18.14;43.18;101593.00;4975939;28;20388;-78
2022/04/21 05:35:08;;;;;;;;;;;;;;;18.16;43.01;101598.19;4958607;28;19914;-77
2022/04/21 05:37:37;;;;;;;;;;;;;;;18.28;43.28;101596.47;4976585;28;19969;-76
2022/04/21 05:40:03;;;;;;;;;;;;;;;18.54;42.18;101589.50;4981070;28;19918;-79
2022/04/21 05:42:31;;;;;;;;;;;;;;;19.14;41.29;101598.06;4980275;28;20428;-77
2022/04/21 05:44:57;;;;;;;;;;;;;;;19.47;40.33;101594.41;4980202;28;20008;-76
2022/04/21 05:47:25;;;;;;;;;;;;;;;19.58;39.74;101593.50;4979913;28;19917;-76
2022/04/21 05:49:50;;;;;;;;;;;;;;;20.05;39.41;101580.13;4962291;28;19921;-76
2022/04/21 05:52:16;;;;;;;;;;;;;;;20.36;38.54;101585.09;4961755;28;20004;-76
2022/04/21 05:54:42;;;;;;;;;;;;;;;20.45;38.33;101590.25;4978706;28;19915;-76
2022/04/21 05:57:07;;;;;;;;;;;;;;;20.69;37.09;101588.31;4978523;28;19921;-76
2022/04/21 05:59:33;;;;;;;;;;;;;;;20.78;36.73;101577.72;4978733;28;19924;-76
2022/04/21 06:01:59;;;;;;;;;;;;;;;21.02;36.18;101580.94;4961646;28;19914;-76
2022/04/21 06:04:24;;;;;;;;;;;;;;;21.22;35.84;101575.47;4961335;28;19961;-76
2022/04/21 06:06:50;;;;;;;;;;;;;;;21.34;35.14;101570.94;4978627;28;20344;-76
2022/04/21 06:09:19;;;;;;;;;;;;;;;21.29;35.65;101575.34;4960934;28;19921;-76
2022/04/21 06:11:44;;;;;;;;;;;;;;;21.34;34.97;101575.31;4961387;28;19914;-76
2022/04/21 06:14:10;;;;;;;;;;;;;;;21.40;35.47;101580.44;4978309;28;19965;-76
2022/04/21 06:16:35;;;;;;;;;;;;;;;21.56;34.11;101574.13;4978075;28;19967;-77
2022/04/21 06:19:00;;;;;;;;;;;;;;;21.61;35.17;101571.44;4960928;28;19918;-77
2022/04/21 06:21:26;;;;;;;;;;;;;;;21.78;34.90;101568.59;4978101;28;19925;-77
2022/04/21 06:23:51;;;;;;;;;;;;;;;21.95;34.64;101568.31;4978235;28;19925;-76
2022/04/21 06:26:17;;;;;;;;;;;;;;;21.97;34.61;101571.75;4978223;28;19918;-76
2022/04/21 06:28:43;;;;;;;;;;;;;;;21.93;35.05;101577.97;4978152;28;19914;-76
2022/04/21 06:31:09;;;;;;;;;;;;;;;21.89;34.87;101565.78;4978191;28;20283;-76
2022/04/21 06:33:35;;;;;;;;;;;;;;;21.99;35.01;101572.59;4960887;28;19914;-76
2022/04/21 06:36:03;;;;;;;;;;;;;;;22.02;35.21;101567.31;4944535;28;19918;-76
2022/04/21 06:38:28;;;;;;;;;;;;;;;22.07;35.07;101575.97;4977643;28;19918;-77
2022/04/21 06:40:54;;;;;;;;;;;;;;;22.07;35.01;101565.47;4978061;28;20280;-76
2022/04/21 06:48:46;;;;;;;;;;;;;;;22.23;34.91;101562.63;4977459;28;20391;-76
2022/04/21 06:51:12;;;;;;;;;;;;;;;22.03;34.31;101570.81;4977461;28;19918;-76
2022/04/21 06:53:39;;;;;;;;;;;;;;;21.28;36.41;101567.53;4977735;28;19914;-76
2022/04/21 06:56:04;;;;;;;;;;;;;;;20.73;37.32;101569.94;4960112;28;19914;-76
2022/04/21 06:58:30;;;;;;;;;;;;;;;20.61;37.55;101564.81;4960336;28;19930;-76
2022/04/21 07:00:55;;;;;;;;;;;;;;;20.60;37.74;101564.84;4977443;28;20396;-76
2022/04/21 07:03:20;;;;;;;;;;;;;;;20.56;37.92;101569.22;4959916;28;20427;-77
2022/04/21 07:05:46;;;;;;;;;;;;;;;20.53;37.95;101569.22;4960045;28;19917;-76
2022/04/21 07:08:11;;;;;;;;;;;;;;;20.54;38.39;101570.97;4977390;28;20424;-76
2022/04/21 07:10:37;;;;;;;;;;;;;;;20.52;37.87;101562.28;4977421;28;19950;-76
2022/04/21 07:13:11;;;;;;;;;;;;;;;20.49;37.63;101563.19;4960430;28;20404;-76
2022/04/21 07:15:37;;;;;;;;;;;;;;;20.49;38.69;101557.97;4977504;28;19915;-76
2022/04/21 07:18:03;;;;;;;;;;;;;;;20.50;38.05;101564.91;4960083;28;20276;-78
2022/04/21 07:20:28;;;;;;;;;;;;;;;20.53;38.21;101564.91;4977996;28;19918;-76
2022/04/21 07:22:53;;;;;;;;;;;;;;;20.52;38.17;101560.53;4960003;28;19926;-77
2022/04/21 07:25:19;;;;;;;;;;;;;;;20.54;38.25;101561.38;4943637;28;19918;-77
2022/04/21 07:27:44;;;;;;;;;;;;;;;20.37;38.54;101565.91;4943788;28;19924;-77
2022/04/21 07:30:09;;;;;;;;;;;;;;;20.25;38.30;101568.63;4944007;28;20388;-78
2022/04/21 07:32:35;;;;;;;;;;;;;;;20.21;38.20;101580.88;4959473;28;19914;-77
2022/04/21 07:35:01;;;;;;;;;;;;;;;20.19;38.09;101576.56;4959558;28;19921;-77
2022/04/21 07:37:26;;;;;;;;;;;;;;;20.15;38.16;101565.25;4976659;28;19952;-77
2022/04/21 07:39:51;;;;;;;;;;;;;;;20.12;37.87;101573.09;4976643;28;20365;-77
2022/04/21 07:42:17;;;;;;;;;;;;;;;20.15;37.57;101573.09;4959555;28;19925;-76
2022/04/21 07:44:42;;;;;;;;;;;;;;;20.20;37.40;101568.69;4976559;28;20328;-77
2022/04/21 07:47:08;;;;;;;;;;;;;;;20.12;37.19;101560.91;4976753;28;19918;-78
2022/04/21 07:49:46;;;;;;;;;;;;;;;20.07;37.75;101567.06;4976480;28;19918;-77
2022/04/21 07:54:55;;;;;;;;;;;;;;;20.08;37.16;101569.66;4976927;28;19925;-78
2022/04/21 07:57:21;;;;;;;;;;;;;;;20.12;36.99;101570.47;4959660;28;19914;-76
2022/04/21 07:59:47;;;;;;;;;;;;;;;20.12;36.94;101570.47;4976653;28;19918;-79
2022/04/21 08:02:13;;;;;;;;;;;;;;;20.08;37.17;101574.88;4975263;28;20009;-77
2022/04/21 08:04:38;;;;;;;;;;;;;;;20.08;37.10;101574.03;4959115;28;19937;-77
2022/04/21 08:07:04;;;;;;;;;;;;;;;20.10;36.84;101574.88;4959056;28;19921;-77
2022/04/21 08:09:29;;;;;;;;;;;;;;;20.10;36.78;101574.88;4976233;28;20294;-76
2022/04/21 08:11:56;;;;;;;;;;;;;;;20.09;36.50;101578.34;4976061;28;19914;-78
2022/04/21 08:14:22;;;;;;;;;;;;;;;20.14;35.98;101576.56;4976283;28;19914;-78
2022/04/21 08:16:47;;;;;;;;;;;;;;;20.20;35.49;101579.13;4976127;28;19969;-78
2022/04/21 08:19:12;;;;;;;;;;;;;;;20.14;35.52;101587.00;4975865;28;19922;-78
2022/04/21 08:21:37;;;;;;;;;;;;;;;20.16;36.26;101581.78;4975853;28;19922;-78
2022/04/21 08:35:01;;;;;;;;;;;;;;;20.24;33.71;101587.81;4976334;28;19972;-81
2022/04/21 08:37:27;;;;;;;;;;;;;;;20.26;32.77;101594.75;4975924;28;19914;-80
2022/04/21 08:39:53;;;;;;;;;;;;;;;20.22;33.83;101589.56;4975663;28;20013;-81
2022/04/21 08:42:19;;;;;;;;;;;;;;;20.21;33.99;101588.72;4942919;28;20373;-80
2022/04/21 08:44:44;;;;;;;;;;;;;;;20.21;32.66;101586.09;4958664;28;19914;-81
2022/04/21 08:47:10;;;;;;;;;;;;;;;20.13;34.12;101585.28;4975908;28;19914;-81
2022/04/21 08:49:36;;;;;;;;;;;;;;;20.21;34.22;101588.72;4975729;28;20056;-82
2022/04/21 08:52:02;;;;;;;;;;;;;;;20.22;33.74;101587.81;4958308;28;19914;-81
2022/04/21 08:54:27;;;;;;;;;;;;;;;20.19;32.89;101582.63;4942402;28;19918;-80
2022/04/21 08:56:53;;;;;;;;;;;;;;;20.14;33.95;101582.69;4942322;28;20298;-81
2022/04/21 08:59:19;;;;;;;;;;;;;;;20.19;31.58;101572.19;4975720;28;20021;-81
2022/04/21 09:01:44;;;;;;;;;;;;;;;20.15;32.04;101578.31;4975702;28;20361;-80
2022/04/21 09:04:10;;;;;;;;;;;;;;;20.11;32.47;101572.22;4975566;28;19925;-82
2022/04/21 09:06:38;;;;;;;;;;;;;;;20.09;34.39;101576.59;4975662;28;19922;-81
2022/04/21 09:09:14;;;;;;;;;;;;;;;20.15;31.87;101567.84;4975958;28;19910;-83
2022/04/21 09:11:39;;;;;;;;;;;;;;;20.08;31.00;101566.19;4958685;28;19914;-81
2022/04/21 09:14:05;;;;;;;;;;;;;;;20.09;30.53;101573.13;4942476;28;19940;-82
2022/04/21 09:16:34;;;;;;;;;;;;;;;20.08;30.66;101563.56;4959228;28;19972;-81
2022/04/21 09:19:02;;;;;;;;;;;;;;;20.02;30.46;101566.22;4975771;28;19929;-81
2022/04/21 09:21:34;;;;;;;;;;;;;;;19.99;31.12;101567.13;4943449;28;19925;-82
2022/04/21 09:23:59;;;;;;;;;;;;;;;19.94;31.73;101571.50;4960538;28;19989;-82
2022/04/21 09:26:25;;;;;;;;;;;;;;;19.91;31.30;101568.94;4959486;28;20106;-84
2022/04/21 09:28:54;;;;;;;;;;;;;;;19.83;32.04;101570.72;4976660;28;19921;-82
2022/04/21 09:31:20;;;;;;;;;;;;;;;19.82;32.01;101563.78;4976493;28;19914;-83
2022/04/21 09:33:45;;;;;;;;;;;;;;;19.78;32.77;101568.16;4976300;28;19919;-81
2022/04/21 09:36:11;;;;;;;;;;;;;;;19.73;32.48;101570.78;4976319;28;19924;-82
2022/04/21 09:38:37;;;;;;;;;;;;;;;19.74;32.08;101558.59;4960521;28;20061;-82
2022/04/21 09:41:10;;;;;;;;;;;;;;;19.73;32.18;101556.88;4960269;28;19926;-83
2022/04/21 09:43:37;;;;;;;;;;;;;;;19.74;33.80;101561.22;4957964;28;19914;-78
2022/04/21 09:46:11;;;;;;;;;;;;;;;19.69;33.05;101569.06;4975659;28;19977;-79
2022/04/21 09:48:37;;;;;;;;;;;;;;;19.66;33.42;101566.47;4975931;28;19921;-78
2022/04/21 09:51:08;;;;;;;;;;;;;;;19.56;32.99;101569.16;4958796;28;19914;-78
2022/04/21 09:53:53;;;;;;;;;;;;;;;19.47;33.59;101568.31;4976344;28;19918;-78
2022/04/21 09:56:29;;;;;;;;;;;;;;;19.50;33.36;101567.44;4959621;28;19946;-78
2022/04/21 09:58:54;;;;;;;;;;;;;;;19.53;33.90;101562.19;4958407;28;19969;-78
2022/04/21 10:01:20;;;;;;;;;;;;;;;19.53;33.91;101560.44;4975780;28;20329;-78
2022/04/21 10:03:46;;;;;;;;;;;;;;;19.50;34.03;101564.81;4941741;28;19929;-77
2022/04/21 10:06:12;;;;;;;;;;;;;;;19.44;34.24;101559.63;4975229;28;20357;-78
2022/04/21 10:08:40;;;;;;;;;;;;;;;19.41;34.09;101555.28;4957994;28;20015;-78
2022/04/21 10:11:06;;;;;;;;;;;;;;;19.36;34.49;101546.63;4975582;28;19914;-78
2022/04/21 10:13:31;;;;;;;;;;;;;;;19.38;34.08;101538.78;4975433;28;19976;-78
2022/04/21 10:15:57;;;;;;;;;;;;;;;19.40;34.32;101537.91;4958595;28;19981;-78
2022/04/21 10:18:24;;;;;;;;;;;;;;;19.42;34.65;101538.75;4958018;28;19980;-78
2022/04/21 10:20:51;;;;;;;;;;;;;;;19.42;34.63;101533.53;4975791;28;19923;-79
2022/04/21 10:23:18;;;;;;;;;;;;;;;19.40;35.12;101537.91;4957812;28;19921;-79
2022/04/21 10:25:43;;;;;;;;;;;;;;;19.36;34.83;101533.59;4977451;28;19918;-79
2022/04/21 10:28:27;;;;;;;;;;;;;;;19.39;34.85;101520.50;4960899;28;19921;-79
2022/04/21 10:30:52;;;;;;;;;;;;;;;19.38;34.97;101529.22;4962316;28;19914;-79
2022/04/21 10:33:37;;;;;;;;;;;;;;;19.42;35.00;101530.06;4946181;28;19918;-79
2022/04/21 10:36:03;;;;;;;;;;;;;;;19.42;35.07;101519.63;4961182;28;19921;-78
2022/04/21 10:38:28;;;;;;;;;;;;;;;19.35;34.78;101518.78;4960663;28;19918;-78
2022/04/21 10:40:55;;;;;;;;;;;;;;;19.36;35.11;101515.31;4960805;28;20012;-77
2022/04/21 10:43:20;;;;;;;;;;;;;;;19.32;35.08;101519.69;4961447;28;19964;-79
2022/04/21 10:46:01;;;;;;;;;;;;;;;19.31;34.76;101517.97;4961676;28;20278;-77
2022/04/21 10:48:43;;;;;;;;;;;;;;;19.27;34.99;101516.25;4961200;28;20377;-78
2022/04/21 10:51:09;;;;;;;;;;;;;;;19.29;35.15;101508.38;4978276;28;19921;-78
2022/04/21 10:59:29;;;;;;;;;;;;;;;19.22;34.95;101504.09;4978627;28;19921;-77
2022/04/21 11:01:55;;;;;;;;;;;;;;;19.23;35.04;101501.47;4978133;28;19918;-77
2022/04/21 11:04:21;;;;;;;;;;;;;;;19.24;35.06;101491.91;4961377;28;19914;-77
2022/04/21 11:06:51;;;;;;;;;;;;;;;19.26;35.70;101500.59;4978494;28;19936;-77
2022/04/21 11:09:37;;;;;;;;;;;;;;;19.28;35.07;101502.31;4977926;28;19914;-77
2022/04/21 11:12:04;;;;;;;;;;;;;;;19.33;35.48;101495.31;4967221;28;19914;-77
2022/04/21 11:14:31;;;;;;;;;;;;;;;19.35;35.31;101490.09;4977972;28;19918;-77
2022/04/21 11:16:57;;;;;;;;;;;;;;;19.37;35.54;101490.09;4978455;28;20385;-77
2022/04/21 11:19:28;;;;;;;;;;;;;;;19.38;35.59;101483.97;4977495;28;20013;-77
2022/04/21 11:21:54;;;;;;;;;;;;;;;19.40;35.58;101485.72;4960966;28;20333;-77
2022/04/21 11:24:19;;;;;;;;;;;;;;;19.28;35.01;101480.56;4977823;28;19920;-77
2022/04/21 11:26:52;;;;;;;;;;;;;;;19.22;35.12;101483.22;4943980;28;20004;-77
2022/04/21 11:29:17;;;;;;;;;;;;;;;19.25;35.00;101491.00;4977944;28;20352;-77
2022/04/21 11:31:43;;;;;;;;;;;;;;;19.24;34.65;101491.91;4977299;28;19910;-77
2022/04/21 11:34:08;;;;;;;;;;;;;;;19.23;34.45;101482.34;4977504;28;19921;-77
2022/04/21 11:36:36;;;;;;;;;;;;;;;19.33;35.10;101486.63;4959405;28;19914;-78
2022/04/21 11:39:06;;;;;;;;;;;;;;;19.22;34.49;101486.69;4977849;28;20337;-77
2022/04/21 11:41:32;;;;;;;;;;;;;;;19.30;34.92;101474.44;4977508;28;19922;-78
2022/04/21 11:43:57;;;;;;;;;;;;;;;19.29;35.15;101479.69;4977647;28;20292;-78
2022/04/21 11:46:23;;;;;;;;;;;;;;;19.31;34.97;101481.44;4960610;28;19914;-77
2022/04/21 11:48:56;;;;;;;;;;;;;;;19.34;34.97;101475.31;4960147;28;19914;-78
2022/04/21 11:51:27;;;;;;;;;;;;;;;19.34;35.05;101480.53;4976946;28;20033;-79
2022/04/21 11:53:53;;;;;;;;;;;;;;;19.32;34.67;101464.88;4959395;28;19914;-76
2022/04/21 11:56:21;;;;;;;;;;;;;;;19.33;35.46;101465.72;4977271;28;19921;-76
2022/04/21 11:58:46;;;;;;;;;;;;;;;19.32;34.89;101470.09;4977271;28;20338;-78
2022/04/21 12:06:46;;;;;;;;;;;;;;;19.29;35.21;101464.00;4977823;28;20002;-79
2022/04/21 12:09:15;;;;;;;;;;;;;;;19.27;34.85;101451.00;4959323;28;19914;-78
2022/04/21 12:12:01;;;;;;;;;;;;;;;19.27;34.86;101463.16;4959082;28;19915;-78
2022/04/21 12:14:27;;;;;;;;;;;;;;;19.30;34.69;101469.25;4958784;28;19918;-78
2022/04/21 12:16:58;;;;;;;;;;;;;;;19.28;34.09;101457.94;4976717;28;19914;-77
2022/04/21 12:19:28;;;;;;;;;;;;;;;19.29;34.35;101461.41;4959132;28;20393;-78
2022/04/21 12:21:57;;;;;;;;;;;;;;;19.35;34.76;101460.50;4976436;28;19914;-78
2022/04/21 12:24:26;;;;;;;;;;;;;;;19.33;34.69;101458.75;4958827;28;19914;-77
2022/04/21 12:26:52;;;;;;;;;;;;;;;19.37;35.11;101451.78;4976828;28;20373;-78
2022/04/21 12:29:18;;;;;;;;;;;;;;;19.38;34.83;101450.03;4977373;28;19972;-79
2022/04/21 12:31:46;;;;;;;;;;;;;;;19.43;34.97;101456.97;4975991;28;20041;-79
2022/04/21 12:34:12;;;;;;;;;;;;;;;19.39;35.02;101447.44;4959035;28;19962;-79
2022/04/21 12:36:37;;;;;;;;;;;;;;;19.38;34.60;101450.94;4958794;28;20000;-78
2022/04/21 12:39:03;;;;;;;;;;;;;;;19.35;34.60;101445.72;4958613;28;19918;-79
2022/04/21 12:41:28;;;;;;;;;;;;;;;19.36;34.39;101436.13;4976402;28;20009;-78
2022/04/21 12:43:53;;;;;;;;;;;;;;;19.32;34.41;101443.13;4976350;28;20008;-77
2022/04/21 12:46:22;;;;;;;;;;;;;;;19.31;34.98;101434.44;4975999;28;20336;-78
2022/04/21 12:48:48;;;;;;;;;;;;;;;19.33;34.87;101437.03;4958887;28;19937;-78
2022/04/21 12:51:20;;;;;;;;;;;;;;;19.36;34.89;101430.91;4976119;28;20025;-78
2022/04/21 12:53:53;;;;;;;;;;;;;;;19.31;34.60;101410.97;4959281;28;19914;-77
2022/04/21 12:56:19;;;;;;;;;;;;;;;19.29;34.49;101417.94;4959009;28;19914;-77
2022/04/21 12:58:54;;;;;;;;;;;;;;;19.28;34.61;101410.97;4975494;28;19929;-77
2022/04/21 13:01:19;;;;;;;;;;;;;;;19.29;34.77;101412.72;4958870;28;20296;-78
2022/04/21 13:03:44;;;;;;;;;;;;;;;19.32;34.77;101415.28;4958629;28;19918;-79
2022/04/21 13:06:09;;;;;;;;;;;;;;;19.39;34.90;101407.41;4942867;28;20377;-79
2022/04/21 13:08:35;;;;;;;;;;;;;;;19.33;34.40;101409.19;4976814;28;19968;-79
2022/04/21 13:11:00;;;;;;;;;;;;;;;19.35;34.31;101397.88;4959129;28;19914;-79
2022/04/21 13:13:29;;;;;;;;;;;;;;;19.35;35.10;101396.13;4958818;28;20006;-79
2022/04/21 13:15:58;;;;;;;;;;;;;;;19.37;34.65;101389.16;4975839;28;19929;-79
2022/04/21 13:18:23;;;;;;;;;;;;;;;19.39;34.74;101384.78;4976066;28;19926;-80
2022/04/21 13:23:32;;;;;;;;;;;;;;;19.42;34.82;101376.91;4976181;28;19922;-79
2022/04/21 13:26:01;;;;;;;;;;;;;;;19.40;34.42;101375.22;4958536;28;19918;-79
2022/04/21 13:28:26;;;;;;;;;;;;;;;19.38;34.68;101379.56;4958479;28;20433;-79
2022/04/21 13:33:35;;;;;;;;;;;;;;;19.38;35.07;101370.03;4976249;28;19925;-79